Terminal Aerodrome Forecast
Issued by NWS North Platte, NE

Home | Current Version | Previous Version | Graphics & Text | Print | Product List | Glossary On
Versions: 1 2 3 4 5 6 7 8 9 10 11 12 13 14
186
FTUS43 KLBF 142157 AAB
TAFVTN
TAF AMD
KVTN 142157Z 1422/1518 33015G25KT P6SM VCSH BKN020 OVC030
      TEMPO 1422/1424 33015G25KT 2SM -SN BR SCT015 OVC020
     FM150000 31010KT P6SM BKN030
     FM150500 27007KT P6SM SCT030 BKN200
     FM150900 24007KT P6SM BKN200=

USA.gov is the U.S. government's official web portal to all federal, state and local government web resources and services.